Time;durP1;ratioP1;P1;durP2;ratioP2;P2;SDS_P1;SDS_P2;PMS_P1;PMS_P2;Temp;Humidity;BMP_temperature;BMP_pressure;BME280_temperature;BME280_humidity;BME280_pressure;Samples;Min_cycle;Max_cycle;Signal;HPM_P1;HPM_P2
2020/12/14 00:00:21;;;;;;;8.32;5.47;;;2.80;99.90;;;;;;5079469;28;20077;-75
2020/12/14 00:02:47;;;;;;;10.68;5.78;;;2.70;99.90;;;;;;5063557;28;20158;-75
2020/12/14 00:05:14;;;;;;;6.75;5.28;;;2.70;99.90;;;;;;5060891;28;20103;-76
2020/12/14 00:07:40;;;;;;;7.15;5.55;;;2.60;99.90;;;;;;5082150;28;20024;-76
2020/12/14 00:10:06;;;;;;;10.57;6.80;;;2.60;99.90;;;;;;5081111;28;20042;-75
2020/12/14 00:12:32;;;;;;;9.32;5.80;;;2.50;99.90;;;;;;5079235;28;20046;-76
2020/12/14 00:14:58;;;;;;;8.40;5.80;;;2.40;99.90;;;;;;5062417;28;20031;-75
2020/12/14 00:17:24;;;;;;;8.63;5.57;;;2.40;99.90;;;;;;5080322;28;20127;-75
2020/12/14 00:19:50;;;;;;;8.20;6.18;;;2.30;99.90;;;;;;5079462;28;20507;-75
2020/12/14 00:22:15;;;;;;;9.52;6.25;;;2.30;99.90;;;;;;5080048;28;20403;-76
2020/12/14 00:24:41;;;;;;;8.93;6.18;;;2.40;99.90;;;;;;5080731;28;20445;-76
2020/12/14 00:27:07;;;;;;;8.40;6.63;;;2.50;99.90;;;;;;5079089;28;20104;-76
2020/12/14 00:29:32;;;;;;;8.57;5.75;;;2.50;99.90;;;;;;5079902;28;20043;-76
2020/12/14 00:31:58;;;;;;;8.68;6.35;;;2.70;99.90;;;;;;5081863;28;20037;-76
2020/12/14 00:34:24;;;;;;;8.18;5.60;;;2.90;99.90;;;;;;5082689;28;20020;-76
2020/12/14 00:36:50;;;;;;;7.65;6.05;;;3.00;99.90;;;;;;5085762;28;20027;-76
2020/12/14 00:39:16;;;;;;;7.43;5.85;;;3.00;99.90;;;;;;5083336;28;20020;-76
2020/12/14 00:41:42;;;;;;;8.75;6.53;;;3.00;99.90;;;;;;5083813;28;20107;-76
2020/12/14 00:44:08;;;;;;;9.25;5.97;;;3.10;99.90;;;;;;5084709;28;20122;-76
2020/12/14 00:46:34;;;;;;;7.30;5.70;;;3.10;99.90;;;;;;5083460;28;20754;-74
2020/12/14 00:48:59;;;;;;;8.15;5.80;;;3.10;99.90;;;;;;5083799;28;20020;-75
2020/12/14 00:51:30;;;;;;;7.70;5.60;;;3.10;99.90;;;;;;5084190;28;20051;-75
2020/12/14 00:53:57;;;;;;;7.85;5.75;;;3.20;99.90;;;;;;5083929;28;20110;-77
2020/12/14 00:56:23;;;;;;;8.13;5.95;;;3.10;99.90;;;;;;5065301;28;20024;-75
2020/12/14 00:58:49;;;;;;;8.77;6.15;;;3.10;99.90;;;;;;5084743;28;20020;-75
2020/12/14 01:01:16;;;;;;;11.00;6.15;;;3.00;99.90;;;;;;5082349;28;20103;-75
2020/12/14 01:03:42;;;;;;;8.88;6.22;;;2.90;99.90;;;;;;5085098;28;20055;-75
2020/12/14 01:06:08;;;;;;;9.60;6.45;;;2.90;99.90;;;;;;5082366;28;20094;-75
2020/12/14 01:08:34;;;;;;;8.40;6.22;;;2.80;99.90;;;;;;5082813;28;20024;-74
2020/12/14 01:11:00;;;;;;;10.38;6.05;;;2.70;99.90;;;;;;5083521;28;20024;-74
2020/12/14 01:13:27;;;;;;;9.38;7.22;;;2.60;99.90;;;;;;5083785;28;20028;-74
2020/12/14 01:15:53;;;;;;;8.73;5.95;;;2.60;99.90;;;;;;5083026;28;20040;-74
2020/12/14 01:18:19;;;;;;;8.50;5.78;;;2.60;99.90;;;;;;5082342;28;20034;-74
2020/12/14 01:20:46;;;;;;;9.50;6.63;;;2.70;99.90;;;;;;5059362;28;20123;-75
2020/12/14 01:23:12;;;;;;;10.23;7.10;;;2.70;99.90;;;;;;5074102;28;20020;-75
2020/12/14 01:25:37;;;;;;;9.35;6.20;;;2.70;99.90;;;;;;5074838;28;20044;-74
2020/12/14 01:28:06;;;;;;;11.70;6.60;;;2.70;99.90;;;;;;5074723;28;20040;-74
2020/12/14 01:30:32;;;;;;;8.52;5.68;;;2.70;99.90;;;;;;5055914;28;20449;-75
2020/12/14 01:32:57;;;;;;;8.63;6.57;;;2.70;99.90;;;;;;5074357;28;20064;-75
2020/12/14 01:35:23;;;;;;;9.70;7.30;;;2.70;99.90;;;;;;5073570;28;20511;-75
2020/12/14 01:37:50;;;;;;;9.82;6.35;;;2.70;99.90;;;;;;5074309;28;20039;-75
2020/12/14 01:40:16;;;;;;;9.95;7.00;;;2.80;99.90;;;;;;5074064;28;20035;-75
2020/12/14 01:42:46;;;;;;;8.63;6.78;;;2.70;99.90;;;;;;5074095;28;20028;-74
2020/12/14 01:45:12;;;;;;;12.13;7.20;;;2.70;99.90;;;;;;5073392;28;20461;-75
2020/12/14 01:47:39;;;;;;;9.63;6.60;;;2.70;99.90;;;;;;5073831;28;20047;-74
2020/12/14 01:50:06;;;;;;;11.55;7.57;;;2.70;99.90;;;;;;5074044;28;20466;-75
2020/12/14 01:52:33;;;;;;;9.32;6.38;;;2.70;99.90;;;;;;5073726;28;20032;-75
2020/12/14 01:55:01;;;;;;;7.97;6.50;;;2.70;99.90;;;;;;5073910;28;20363;-75
2020/12/14 01:57:28;;;;;;;10.35;6.72;;;2.70;99.90;;;;;;5055069;28;20031;-75
2020/12/14 01:59:56;;;;;;;11.90;6.90;;;2.60;99.90;;;;;;5074311;28;20028;-74
2020/12/14 02:02:22;;;;;;;10.23;6.82;;;2.60;99.90;;;;;;5074154;28;20029;-74
2020/12/14 02:04:48;;;;;;;9.80;6.80;;;2.60;99.90;;;;;;5074057;28;20035;-75
2020/12/14 02:07:14;;;;;;;13.68;6.82;;;2.50;99.90;;;;;;5069874;28;20032;-75
2020/12/14 02:09:40;;;;;;;10.50;6.75;;;2.50;99.90;;;;;;5094103;28;20036;-74
2020/12/14 02:12:06;;;;;;;9.30;6.55;;;2.40;99.90;;;;;;5094217;28;20453;-75
2020/12/14 02:14:36;;;;;;;10.52;6.72;;;2.40;99.90;;;;;;5093351;28;20016;-74
2020/12/14 02:17:03;;;;;;;10.05;6.85;;;2.30;99.90;;;;;;5093901;28;20436;-74
2020/12/14 02:19:28;;;;;;;8.95;6.68;;;2.20;99.90;;;;;;5092988;28;20051;-75
2020/12/14 02:21:57;;;;;;;9.43;7.20;;;2.10;99.90;;;;;;5093957;28;20360;-75
2020/12/14 02:24:24;;;;;;;14.43;7.13;;;2.00;99.90;;;;;;5074940;28;20039;-74
2020/12/14 02:26:49;;;;;;;12.13;7.18;;;2.00;99.90;;;;;;5093990;28;20024;-75
2020/12/14 02:29:16;;;;;;;10.07;7.18;;;2.00;99.90;;;;;;5093066;28;20054;-75
2020/12/14 02:31:41;;;;;;;10.60;7.28;;;2.10;99.90;;;;;;5093683;28;20036;-75
2020/12/14 02:34:08;;;;;;;10.45;7.00;;;2.10;99.90;;;;;;5093577;28;20024;-75
2020/12/14 02:36:34;;;;;;;9.82;6.55;;;2.20;99.90;;;;;;5074790;28;20024;-75
2020/12/14 02:38:59;;;;;;;9.55;6.68;;;2.20;99.90;;;;;;5093608;28;20506;-74
2020/12/14 02:41:25;;;;;;;11.27;6.40;;;2.30;99.90;;;;;;5092789;28;20354;-75
2020/12/14 02:43:51;;;;;;;9.15;6.75;;;2.30;99.90;;;;;;5093308;28;20024;-75
2020/12/14 02:46:16;;;;;;;10.60;7.10;;;2.40;99.90;;;;;;5092538;28;20108;-75
2020/12/14 02:48:42;;;;;;;9.07;6.15;;;2.40;99.90;;;;;;5092949;28;20031;-75
2020/12/14 02:51:07;;;;;;;10.88;6.93;;;2.50;99.90;;;;;;5093063;28;20090;-75
2020/12/14 02:53:33;;;;;;;10.48;7.05;;;2.50;99.90;;;;;;5092514;28;20445;-75
2020/12/14 02:55:58;;;;;;;8.77;6.88;;;2.50;99.90;;;;;;5092693;28;20482;-74
2020/12/14 02:58:24;;;;;;;9.70;6.88;;;2.40;99.90;;;;;;5092201;28;20396;-75
2020/12/14 03:00:50;;;;;;;9.20;6.97;;;2.50;99.90;;;;;;5093265;28;20032;-75
2020/12/14 03:03:15;;;;;;;9.23;6.45;;;2.40;99.90;;;;;;5092453;28;20016;-74
2020/12/14 03:05:41;;;;;;;9.30;6.90;;;2.40;99.90;;;;;;5072952;28;20081;-74
2020/12/14 03:08:07;;;;;;;10.63;7.10;;;2.30;99.90;;;;;;5072596;28;20054;-75
2020/12/14 03:10:32;;;;;;;9.95;7.00;;;2.30;99.90;;;;;;5071990;28;20051;-75
2020/12/14 03:12:58;;;;;;;8.35;6.35;;;2.30;99.90;;;;;;5054798;28;20457;-75
2020/12/14 03:15:24;;;;;;;8.25;6.13;;;2.30;99.90;;;;;;5071523;28;20058;-75
2020/12/14 03:17:50;;;;;;;8.73;6.53;;;2.40;99.90;;;;;;5072356;28;20397;-74
2020/12/14 03:20:15;;;;;;;8.85;6.22;;;2.40;99.90;;;;;;5071619;28;20028;-75
2020/12/14 03:22:41;;;;;;;8.50;6.43;;;2.40;99.90;;;;;;5072268;28;20484;-74
2020/12/14 03:25:06;;;;;;;8.02;6.03;;;2.40;99.90;;;;;;5072520;28;20401;-75
2020/12/14 03:27:32;;;;;;;8.15;5.97;;;2.50;99.90;;;;;;5071336;28;20229;-74
2020/12/14 03:29:58;;;;;;;8.25;6.15;;;2.50;99.90;;;;;;5072346;28;20445;-75
2020/12/14 03:32:23;;;;;;;8.95;6.32;;;2.60;99.90;;;;;;5071577;28;20453;-75
2020/12/14 03:34:49;;;;;;;7.25;5.68;;;2.60;99.90;;;;;;5072174;28;20028;-75
2020/12/14 03:37:14;;;;;;;8.90;6.05;;;2.60;99.90;;;;;;5071694;28;20462;-74
2020/12/14 03:39:40;;;;;;;7.45;5.68;;;2.60;99.90;;;;;;5071964;28;20150;-74
2020/12/14 03:42:06;;;;;;;7.13;5.88;;;2.60;99.90;;;;;;5054375;28;20458;-74
2020/12/14 03:44:31;;;;;;;8.68;6.13;;;2.50;99.90;;;;;;5053433;28;20035;-74
2020/12/14 03:46:57;;;;;;;8.23;6.10;;;2.50;99.90;;;;;;5072181;28;20028;-74
2020/12/14 03:49:22;;;;;;;8.40;6.47;;;2.40;99.90;;;;;;5070966;28;20035;-74
2020/12/14 03:51:48;;;;;;;8.57;6.07;;;2.30;99.90;;;;;;5071725;28;20398;-74
2020/12/14 03:54:14;;;;;;;9.05;6.65;;;2.20;99.90;;;;;;5071537;28;20028;-74
2020/12/14 03:56:39;;;;;;;14.23;8.43;;;2.20;99.90;;;;;;5071775;28;20025;-74
2020/12/14 03:59:05;;;;;;;12.02;8.13;;;2.10;99.90;;;;;;5053895;28;20071;-75
2020/12/14 04:01:31;;;;;;;13.90;8.30;;;2.00;99.90;;;;;;5070876;28;20039;-75
2020/12/14 04:03:57;;;;;;;12.32;8.30;;;1.90;99.90;;;;;;5071675;28;20024;-74
2020/12/14 04:06:24;;;;;;;12.15;7.40;;;1.90;99.90;;;;;;5078431;28;20024;-75
2020/12/14 04:08:51;;;;;;;13.05;8.60;;;1.80;99.90;;;;;;5092165;28;20419;-75
2020/12/14 04:11:17;;;;;;;10.82;7.25;;;1.70;99.90;;;;;;5090794;28;20552;-75
2020/12/14 04:13:44;;;;;;;11.52;7.80;;;1.70;99.90;;;;;;5092051;28;20028;-74
2020/12/14 04:16:10;;;;;;;11.05;7.22;;;1.60;99.90;;;;;;5091922;28;20063;-74
2020/12/14 04:18:36;;;;;;;9.88;6.50;;;1.60;99.90;;;;;;5090952;28;20599;-75
2020/12/14 04:21:03;;;;;;;10.60;6.60;;;1.50;99.90;;;;;;5091537;28;20028;-75
2020/12/14 04:23:29;;;;;;;13.15;8.00;;;1.50;99.90;;;;;;5091181;28;20112;-75
2020/12/14 04:25:56;;;;;;;12.80;7.82;;;1.50;99.90;;;;;;5091869;28;20358;-74
2020/12/14 04:28:22;;;;;;;10.32;6.90;;;1.40;99.90;;;;;;5090855;28;20074;-74
2020/12/14 04:30:47;;;;;;;11.73;8.18;;;1.40;99.90;;;;;;5091693;28;20121;-75
2020/12/14 04:33:13;;;;;;;9.85;6.53;;;1.30;99.90;;;;;;5091427;28;20480;-75
2020/12/14 04:35:38;;;;;;;10.80;7.47;;;1.30;99.90;;;;;;5091333;28;20059;-75
2020/12/14 04:38:04;;;;;;;10.80;7.28;;;1.30;99.90;;;;;;5091989;28;20028;-75
2020/12/14 04:40:30;;;;;;;9.43;6.40;;;1.20;99.90;;;;;;5090884;28;20484;-75
2020/12/14 04:42:58;;;;;;;11.55;7.53;;;1.20;99.90;;;;;;5091786;28;20103;-75
2020/12/14 04:45:25;;;;;;;11.52;7.45;;;1.10;99.90;;;;;;5072744;28;20029;-75
2020/12/14 04:47:55;;;;;;;8.38;5.93;;;1.10;99.90;;;;;;5092034;28;20028;-75
2020/12/14 04:50:22;;;;;;;;;;;1.10;99.90;;;;;;5091162;28;20043;-75
2020/12/14 04:52:48;;;;;;;10.50;7.03;;;1.00;99.90;;;;;;5091226;28;20388;-75
2020/12/14 04:55:18;;;;;;;10.73;7.03;;;1.00;99.90;;;;;;5091373;28;20036;-75
2020/12/14 04:57:44;;;;;;;10.82;7.00;;;1.00;99.90;;;;;;5091408;28;20465;-74
2020/12/14 05:00:09;;;;;;;11.85;7.85;;;0.90;99.90;;;;;;5091469;28;20074;-75
2020/12/14 05:02:35;;;;;;;11.43;7.55;;;0.90;99.90;;;;;;5091169;28;20653;-74
2020/12/14 05:05:01;;;;;;;10.68;7.18;;;0.90;99.90;;;;;;5073385;28;20368;-74
2020/12/14 05:07:44;;;;;;;12.20;7.72;;;0.90;99.90;;;;;;5090577;28;20028;-74
2020/12/14 05:10:11;;;;;;;13.43;7.70;;;0.90;99.90;;;;;;5091279;28;20032;-74
2020/12/14 05:12:44;;;;;;;11.70;8.02;;;0.90;99.90;;;;;;5090834;28;20157;-74
2020/12/14 05:15:23;;;;;;;11.32;7.28;;;0.90;99.90;;;;;;5091600;28;20115;-75
2020/12/14 05:17:50;;;;;;;13.13;7.63;;;0.90;99.90;;;;;;5092861;28;20039;-74
2020/12/14 05:20:18;;;;;;;9.98;6.63;;;0.90;99.90;;;;;;5094434;28;20055;-75
2020/12/14 05:22:57;;;;;;;11.23;6.50;;;0.90;99.90;;;;;;5094817;28;20067;-74
2020/12/14 05:25:23;;;;;;;10.00;6.43;;;0.80;99.90;;;;;;5094597;28;20111;-75
2020/12/14 05:28:00;;;;;;;10.10;6.57;;;0.80;99.90;;;;;;5095117;28;20127;-74
2020/12/14 05:30:33;;;;;;;13.73;8.23;;;0.70;99.90;;;;;;5094416;28;20034;-74
2020/12/14 05:33:00;;;;;;;13.23;7.97;;;0.70;99.90;;;;;;5095203;28;20039;-74
2020/12/14 05:35:34;;;;;;;14.50;8.07;;;0.60;99.90;;;;;;5094273;28;20051;-74
2020/12/14 05:38:20;;;;;;;11.70;7.60;;;0.60;99.90;;;;;;5095310;28;20027;-74
2020/12/14 05:40:49;;;;;;;12.13;7.70;;;0.60;99.90;;;;;;5094840;28;20035;-77
2020/12/14 05:43:18;;;;;;;11.88;7.35;;;0.60;99.90;;;;;;5094676;28;20025;-77
2020/12/14 05:45:44;;;;;;;14.85;7.93;;;0.60;99.90;;;;;;5094760;28;20046;-75
2020/12/14 05:48:26;;;;;;;14.13;8.73;;;0.60;99.90;;;;;;5076526;28;20381;-75
2020/12/14 05:50:54;;;;;;;12.25;7.93;;;0.60;99.90;;;;;;5094686;28;20085;-75
2020/12/14 05:53:21;;;;;;;13.95;8.52;;;0.60;99.90;;;;;;5093495;28;20051;-75
2020/12/14 05:55:47;;;;;;;11.95;7.70;;;0.60;99.90;;;;;;5094793;28;20028;-75
2020/12/14 05:58:16;;;;;;;12.15;7.10;;;0.60;99.90;;;;;;5094775;28;20037;-75
2020/12/14 06:00:46;;;;;;;13.63;8.57;;;0.50;99.90;;;;;;5091224;28;20485;-75
2020/12/14 06:03:12;;;;;;;13.75;7.55;;;0.50;99.90;;;;;;5094330;28;20587;-75
2020/12/14 06:05:38;;;;;;;12.88;8.85;;;0.40;99.90;;;;;;5092099;28;20035;-75
2020/12/14 06:08:35;;;;;;;13.25;8.90;;;0.40;99.90;;;;;;5074018;28;20428;-75
2020/12/14 06:11:04;;;;;;;13.27;7.90;;;0.40;99.90;;;;;;5042296;28;20405;-75
2020/12/14 06:13:31;;;;;;;13.57;8.35;;;0.40;99.90;;;;;;5073180;28;20029;-75
2020/12/14 06:16:03;;;;;;;15.23;9.45;;;0.40;99.90;;;;;;5056268;28;20029;-74
2020/12/14 06:18:33;;;;;;;14.48;8.68;;;0.40;99.90;;;;;;5073146;28;20115;-75
2020/12/14 06:21:01;;;;;;;13.73;9.30;;;0.40;99.90;;;;;;5055779;28;20036;-74
2020/12/14 06:23:36;;;;;;;16.00;9.77;;;0.40;99.90;;;;;;5072590;28;20032;-74
2020/12/14 06:26:05;;;;;;;17.70;10.07;;;0.40;99.90;;;;;;5055898;28;20021;-75
2020/12/14 06:28:32;;;;;;;13.63;8.38;;;0.40;99.90;;;;;;5072026;28;20501;-74
2020/12/14 06:30:59;;;;;;;15.32;9.35;;;0.40;99.90;;;;;;5073346;28;20035;-74
2020/12/14 06:33:33;;;;;;;13.90;8.95;;;0.40;99.90;;;;;;5073346;28;20029;-75
2020/12/14 06:36:15;;;;;;;17.00;9.40;;;0.30;99.90;;;;;;5073278;28;20036;-75
2020/12/14 06:38:42;;;;;;;14.45;8.73;;;0.30;99.90;;;;;;5072504;28;20028;-75
2020/12/14 06:41:18;;;;;;;14.68;8.38;;;0.20;99.90;;;;;;5073374;28;20070;-75
2020/12/14 06:43:46;;;;;;;12.50;8.23;;;0.20;99.90;;;;;;5072772;28;20079;-75
2020/12/14 06:46:12;;;;;;;19.05;10.20;;;0.10;99.90;;;;;;5073191;28;20032;-75
2020/12/14 06:48:46;;;;;;;16.48;10.32;;;0.10;99.90;;;;;;5072280;28;20016;-75
2020/12/14 06:51:16;;;;;;;18.27;10.38;;;0.10;99.90;;;;;;5072974;28;20131;-75
2020/12/14 06:53:50;;;;;;;17.83;10.77;;;0.10;99.90;;;;;;5071976;28;20051;-75
2020/12/14 06:56:37;;;;;;;19.85;10.35;;;0.10;99.90;;;;;;5072956;28;20033;-77
2020/12/14 06:59:27;;;;;;;22.85;12.85;;;0.10;99.90;;;;;;5054993;28;20073;-75
2020/12/14 07:01:57;;;;;;;26.80;14.68;;;0.20;99.90;;;;;;5073293;28;20029;-79
2020/12/14 07:04:29;;;;;;;24.15;13.85;;;0.20;99.90;;;;;;5072251;28;20397;-77
2020/12/14 07:07:14;;;;;;;25.00;13.05;;;0.20;99.90;;;;;;5084922;28;20027;-78
2020/12/14 07:09:41;;;;;;;22.75;12.48;;;0.20;99.90;;;;;;5091620;28;20028;-81
2020/12/14 07:12:09;;;;;;;24.75;11.65;;;0.20;99.90;;;;;;5092769;28;20468;-78
2020/12/14 07:14:36;;;;;;;19.85;11.77;;;0.20;99.90;;;;;;5092258;28;20026;-73
2020/12/14 07:17:16;;;;;;;29.00;15.32;;;0.20;99.90;;;;;;5074902;28;20024;-74
2020/12/14 07:19:44;;;;;;;;;;;0.20;99.90;;;;;;5092195;28;20039;-77
2020/12/14 07:22:14;;;;;;;24.75;12.65;;;0.20;99.90;;;;;;5092688;28;19908;-76
2020/12/14 07:24:40;;;;;;;26.08;13.10;;;0.30;99.90;;;;;;5091650;28;20024;-74
2020/12/14 07:27:09;;;;;;;18.65;11.20;;;0.30;99.90;;;;;;5092503;28;20028;-78
2020/12/14 07:29:35;;;;;;;20.98;10.85;;;0.30;99.90;;;;;;5091706;28;20389;-78
2020/12/14 07:32:05;;;;;;;19.75;11.45;;;0.30;99.90;;;;;;5092492;28;20114;-75
2020/12/14 07:34:31;;;;;;;21.13;11.95;;;0.30;99.90;;;;;;5088699;28;20134;-77
2020/12/14 07:36:56;;;;;;;21.38;12.38;;;0.30;99.90;;;;;;5092140;28;20112;-75
2020/12/14 07:39:22;;;;;;;20.80;11.70;;;0.30;99.90;;;;;;5091547;28;20028;-75
2020/12/14 07:41:48;;;;;;;18.45;11.48;;;0.30;99.90;;;;;;5089352;28;20081;-75
2020/12/14 07:44:14;;;;;;;20.85;11.90;;;0.30;99.90;;;;;;5091848;28;20024;-75
2020/12/14 07:46:40;;;;;;;23.52;13.45;;;0.30;99.90;;;;;;5091264;28;20028;-75
2020/12/14 07:49:09;;;;;;;21.95;12.77;;;0.30;99.90;;;;;;5092078;28;20024;-75
2020/12/14 07:51:40;;;;;;;28.27;15.27;;;0.30;99.90;;;;;;5091291;28;20028;-75
2020/12/14 07:54:08;;;;;;;26.27;14.13;;;0.30;99.90;;;;;;5091746;28;20039;-76
2020/12/14 07:56:45;;;;;;;22.08;14.00;;;0.40;99.90;;;;;;5072875;28;20027;-73
2020/12/14 07:59:19;;;;;;;21.60;12.82;;;0.40;99.90;;;;;;5073758;28;20452;-75
2020/12/14 08:01:47;;;;;;;23.10;13.23;;;0.40;99.90;;;;;;5091031;28;20035;-76
2020/12/14 08:04:19;;;;;;;28.70;14.65;;;0.50;99.90;;;;;;5091675;28;20035;-76
2020/12/14 08:06:46;;;;;;;24.58;14.25;;;0.50;99.90;;;;;;5070958;28;20024;-76
2020/12/14 08:09:13;;;;;;;25.08;13.52;;;0.50;99.90;;;;;;5071686;28;20029;-76
2020/12/14 08:11:40;;;;;;;23.95;13.40;;;0.50;99.90;;;;;;5070094;28;20040;-76
2020/12/14 08:14:06;;;;;;;21.05;12.32;;;0.50;99.90;;;;;;5071139;28;20032;-79
2020/12/14 08:16:31;;;;;;;27.10;14.32;;;0.60;99.90;;;;;;5070899;28;20021;-76
2020/12/14 08:18:57;;;;;;;24.08;13.70;;;0.60;99.90;;;;;;5071299;28;20028;-76
2020/12/14 08:21:25;;;;;;;24.35;14.77;;;0.60;99.90;;;;;;5071047;28;20028;-76
2020/12/14 08:23:54;;;;;;;28.20;16.08;;;0.60;99.90;;;;;;5053403;28;20036;-76
2020/12/14 08:26:24;;;;;;;28.17;15.40;;;0.70;99.90;;;;;;5071372;28;20029;-75
2020/12/14 08:28:57;;;;;;;24.38;15.00;;;0.80;99.90;;;;;;5071093;28;20064;-75
2020/12/14 08:31:23;;;;;;;25.95;14.15;;;0.90;99.90;;;;;;5070788;28;20060;-76
2020/12/14 08:33:51;;;;;;;24.17;13.27;;;1.00;99.90;;;;;;5070921;28;20029;-75
2020/12/14 08:36:17;;;;;;;22.83;13.50;;;1.20;99.90;;;;;;5087388;28;20096;-75
2020/12/14 08:38:44;;;;;;;20.42;12.68;;;1.20;99.90;;;;;;5090817;28;20070;-75
2020/12/14 08:41:10;;;;;;;23.90;12.80;;;1.30;99.90;;;;;;5091317;28;20088;-75
2020/12/14 08:43:36;;;;;;;20.05;12.07;;;1.40;99.90;;;;;;5089961;28;20028;-75
2020/12/14 08:46:11;;;;;;;21.58;13.48;;;1.40;99.90;;;;;;5091348;28;20457;-75
2020/12/14 08:49:01;;;;;;;21.88;13.13;;;1.50;99.90;;;;;;5090731;28;20069;-76
2020/12/14 08:51:28;;;;;;;20.38;12.88;;;1.60;99.90;;;;;;5068239;28;20514;-76
2020/12/14 08:53:56;;;;;;;22.23;12.90;;;1.70;99.90;;;;;;5094350;28;20401;-76
2020/12/14 08:56:32;;;;;;;18.83;11.75;;;1.80;99.90;;;;;;5095444;28;20020;-75
2020/12/14 08:59:00;;;;;;;20.25;12.68;;;1.90;99.90;;;;;;5095165;28;20530;-75
2020/12/14 09:01:27;;;;;;;20.77;12.50;;;2.00;99.90;;;;;;5094883;28;20066;-76
2020/12/14 09:04:01;;;;;;;30.25;14.95;;;2.00;99.90;;;;;;5095348;28;20032;-75
2020/12/14 09:06:33;;;;;;;25.10;14.40;;;2.10;99.90;;;;;;5086313;28;20028;-76
2020/12/14 09:09:10;;;;;;;26.25;15.10;;;2.10;99.90;;;;;;5074946;28;20024;-75
2020/12/14 09:11:46;;;;;;;23.60;14.30;;;2.20;99.90;;;;;;5074115;28;20028;-75
2020/12/14 09:14:25;;;;;;;24.92;13.88;;;2.30;99.90;;;;;;5074424;28;20078;-76
2020/12/14 09:16:53;;;;;;;24.65;14.65;;;2.40;99.90;;;;;;5055951;28;20425;-76
2020/12/14 09:19:24;;;;;;;21.33;12.95;;;2.40;99.90;;;;;;5089983;28;20059;-75
2020/12/14 09:21:50;;;;;;;19.38;12.35;;;2.50;99.90;;;;;;5095356;28;20044;-75
2020/12/14 09:24:27;;;;;;;22.13;13.93;;;2.50;99.90;;;;;;5094745;28;20111;-76
2020/12/14 09:27:01;;;;;;;23.25;13.07;;;2.60;99.90;;;;;;5094772;28;20469;-75
2020/12/14 09:29:27;;;;;;;18.90;12.73;;;2.70;99.90;;;;;;5093372;28;20054;-75
2020/12/14 09:31:55;;;;;;;20.92;12.98;;;2.80;99.90;;;;;;5094448;28;20103;-75
2020/12/14 09:34:21;;;;;;;18.60;12.25;;;2.80;99.90;;;;;;5094461;28;20036;-76
2020/12/14 09:36:52;;;;;;;18.05;11.32;;;2.90;99.90;;;;;;5094042;28;20035;-75
2020/12/14 09:39:18;;;;;;;19.63;12.15;;;2.90;99.90;;;;;;5094415;28;20024;-75
2020/12/14 09:41:44;;;;;;;18.83;11.82;;;3.00;99.90;;;;;;5093144;28;20028;-75
2020/12/14 09:44:10;;;;;;;19.08;11.40;;;3.10;99.90;;;;;;5094489;28;20482;-76
2020/12/14 09:46:36;;;;;;;18.70;12.23;;;3.10;99.90;;;;;;5093398;28;20032;-75
2020/12/14 09:49:01;;;;;;;17.75;11.98;;;3.20;99.90;;;;;;5094672;28;20024;-76
2020/12/14 09:51:28;;;;;;;20.95;11.98;;;3.30;99.90;;;;;;5093623;28;20047;-75
2020/12/14 09:53:55;;;;;;;22.00;11.98;;;3.40;99.90;;;;;;5094123;28;20024;-76
2020/12/14 09:56:21;;;;;;;17.70;11.57;;;3.50;99.90;;;;;;5093941;28;20385;-76
2020/12/14 09:58:47;;;;;;;16.30;10.48;;;3.60;99.90;;;;;;5093427;28;20031;-76
2020/12/14 10:01:14;;;;;;;14.10;9.82;;;3.80;99.90;;;;;;5094318;28;20073;-76
2020/12/14 10:03:40;;;;;;;12.15;8.32;;;3.90;99.90;;;;;;5074993;28;20062;-77
2020/12/14 10:06:08;;;;;;;12.85;8.73;;;4.00;99.90;;;;;;5088713;28;20432;-77
2020/12/14 10:08:34;;;;;;;13.98;9.65;;;4.20;99.90;;;;;;5081483;28;20044;-77
2020/12/14 10:11:00;;;;;;;14.48;9.57;;;4.30;99.90;;;;;;5093492;28;20069;-77
2020/12/14 10:13:26;;;;;;;14.13;9.35;;;4.50;99.90;;;;;;5093746;28;20031;-77
2020/12/14 10:15:52;;;;;;;12.80;8.70;;;4.70;99.90;;;;;;5093759;28;20024;-77
2020/12/14 10:18:18;;;;;;;13.63;9.20;;;4.90;99.90;;;;;;5094027;28;20051;-77
2020/12/14 10:20:44;;;;;;;16.27;9.07;;;5.10;99.90;;;;;;5092918;28;20047;-76
2020/12/14 10:23:10;;;;;;;12.75;9.00;;;5.20;99.90;;;;;;5094058;28;20032;-77
2020/12/14 10:25:36;;;;;;;14.05;8.40;;;5.40;99.90;;;;;;5092800;28;20067;-77
2020/12/14 10:28:03;;;;;;;13.48;8.02;;;5.60;99.90;;;;;;5093537;28;20056;-77
2020/12/14 10:30:29;;;;;;;9.95;7.10;;;5.80;99.90;;;;;;5092867;28;20047;-77
2020/12/14 10:32:55;;;;;;;16.67;8.30;;;6.00;99.90;;;;;;5093589;28;20034;-77
2020/12/14 10:35:21;;;;;;;8.30;6.45;;;6.10;99.90;;;;;;5093331;28;20043;-77
2020/12/14 10:37:47;;;;;;;9.30;6.70;;;6.30;99.90;;;;;;5092775;28;20292;-77
2020/12/14 10:40:13;;;;;;;10.73;7.85;;;6.40;99.10;;;;;;5093652;28;20032;-77
2020/12/14 10:42:39;;;;;;;12.57;9.10;;;6.60;97.60;;;;;;5092689;28;20023;-77
2020/12/14 10:45:05;;;;;;;9.13;6.97;;;6.70;96.60;;;;;;5093495;28;20025;-77
2020/12/14 10:47:30;;;;;;;8.57;6.68;;;6.80;95.60;;;;;;5091217;28;20028;-77
2020/12/14 10:49:56;;;;;;;11.07;7.18;;;6.90;96.00;;;;;;5069206;28;20060;-77
2020/12/14 10:52:22;;;;;;;12.25;8.02;;;7.00;94.70;;;;;;5073479;28;20377;-77
2020/12/14 10:54:50;;;;;;;8.10;6.30;;;7.10;95.00;;;;;;5072529;28;20674;-77
2020/12/14 10:57:15;;;;;;;10.95;7.22;;;7.10;94.50;;;;;;5072994;28;20182;-77
2020/12/14 10:59:41;;;;;;;12.30;7.55;;;7.10;95.30;;;;;;5071849;28;20099;-77
2020/12/14 11:02:06;;;;;;;12.10;7.28;;;7.10;94.80;;;;;;5072791;28;20111;-77
2020/12/14 11:04:32;;;;;;;9.70;7.43;;;7.20;94.40;;;;;;5070582;28;20029;-77
2020/12/14 11:06:58;;;;;;;10.98;6.38;;;7.20;94.90;;;;;;5096682;28;20016;-77
2020/12/14 11:09:23;;;;;;;9.88;6.55;;;7.30;95.20;;;;;;5113617;28;20031;-77
2020/12/14 11:11:49;;;;;;;9.75;6.97;;;7.30;93.60;;;;;;5074203;28;20462;-77
2020/12/14 11:14:15;;;;;;;9.52;6.57;;;7.40;92.70;;;;;;5071604;28;20082;-77
2020/12/14 11:16:43;;;;;;;9.18;7.45;;;7.50;93.00;;;;;;5069772;28;20396;-77
2020/12/14 11:19:09;;;;;;;11.48;7.50;;;7.60;92.20;;;;;;5072439;28;20029;-77
2020/12/14 11:21:34;;;;;;;13.68;7.63;;;7.60;92.00;;;;;;5070305;28;20032;-77
2020/12/14 11:24:00;;;;;;;9.45;6.75;;;7.60;92.10;;;;;;5070283;28;20041;-77
2020/12/14 11:26:26;;;;;;;14.75;9.38;;;7.70;92.80;;;;;;5071000;28;20097;-77
2020/12/14 11:28:51;;;;;;;9.98;7.10;;;7.80;90.70;;;;;;5087130;28;20046;-76
2020/12/14 11:31:19;;;;;;;11.85;7.35;;;7.90;89.70;;;;;;5091809;28;20052;-77
2020/12/14 11:33:45;;;;;;;9.68;6.32;;;7.90;90.50;;;;;;5081580;28;20047;-76
2020/12/14 11:36:10;;;;;;;9.07;6.38;;;8.00;90.20;;;;;;5084663;28;20100;-76
2020/12/14 11:38:36;;;;;;;10.13;6.50;;;8.00;90.10;;;;;;5072958;28;20107;-77
2020/12/14 11:41:02;;;;;;;7.88;6.05;;;8.00;88.30;;;;;;5091496;28;20039;-77
2020/12/14 11:43:27;;;;;;;9.43;6.35;;;8.00;90.00;;;;;;5092093;28;20429;-77
2020/12/14 11:45:53;;;;;;;12.95;6.97;;;8.10;90.30;;;;;;5091263;28;20024;-78
2020/12/14 11:48:19;;;;;;;10.38;6.55;;;8.20;90.00;;;;;;5091846;28;20020;-77
2020/12/14 11:50:45;;;;;;;10.30;6.45;;;8.20;90.40;;;;;;5091658;28;20071;-77
2020/12/14 11:53:11;;;;;;;14.70;7.05;;;8.20;89.90;;;;;;5092280;28;20032;-78
2020/12/14 11:55:40;;;;;;;19.55;12.25;;;8.30;87.00;;;;;;5091482;28;20094;-78
2020/12/14 11:58:07;;;;;;;17.08;11.27;;;8.40;87.50;;;;;;5091949;28;20032;-77
2020/12/14 12:00:33;;;;;;;9.65;7.43;;;8.30;88.70;;;;;;5091442;28;20362;-77
2020/12/14 12:02:58;;;;;;;14.48;8.05;;;8.30;89.40;;;;;;5091606;28;20056;-76
2020/12/14 12:05:24;;;;;;;12.25;7.70;;;8.30;88.90;;;;;;5092229;28;20546;-77
2020/12/14 12:07:50;;;;;;;12.45;7.25;;;8.30;90.30;;;;;;5070788;28;20024;-79
2020/12/14 12:10:16;;;;;;;13.57;7.30;;;8.40;88.90;;;;;;5071456;28;20033;-77
2020/12/14 12:12:42;;;;;;;12.43;7.57;;;8.40;88.10;;;;;;5070746;28;20450;-78
2020/12/14 12:15:08;;;;;;;10.30;7.05;;;8.40;88.10;;;;;;5071297;28;20023;-78
2020/12/14 12:17:34;;;;;;;10.98;7.65;;;8.50;88.10;;;;;;5052453;28;20029;-78
2020/12/14 12:19:59;;;;;;;10.88;7.68;;;8.70;88.40;;;;;;5071277;28;20371;-78
2020/12/14 12:22:25;;;;;;;11.65;7.43;;;8.80;87.00;;;;;;5071564;28;20050;-77
2020/12/14 12:24:51;;;;;;;12.38;7.35;;;8.90;86.60;;;;;;5071046;28;20032;-77
2020/12/14 12:27:17;;;;;;;11.30;7.93;;;8.90;85.60;;;;;;5070755;28;20107;-78
2020/12/14 12:29:42;;;;;;;14.38;7.72;;;8.90;85.40;;;;;;5070589;28;20131;-77
2020/12/14 12:32:08;;;;;;;11.73;7.25;;;9.00;86.20;;;;;;5071085;28;20035;-76
2020/12/14 12:34:34;;;;;;;11.05;6.28;;;9.10;86.80;;;;;;5072922;28;20400;-76
2020/12/14 12:37:01;;;;;;;12.75;8.13;;;9.20;87.20;;;;;;5091030;28;20028;-77
2020/12/14 12:39:27;;;;;;;12.43;7.43;;;9.30;87.40;;;;;;5073538;28;20395;-77
2020/12/14 12:41:54;;;;;;;9.23;7.00;;;9.40;87.20;;;;;;5090437;28;20637;-77
2020/12/14 12:44:20;;;;;;;10.43;6.75;;;9.40;85.80;;;;;;5091543;28;20389;-77
2020/12/14 12:46:46;;;;;;;12.50;7.63;;;9.50;85.10;;;;;;5072840;28;20103;-78
2020/12/14 12:49:12;;;;;;;9.27;5.97;;;9.60;84.10;;;;;;5091427;28;20128;-78